createdAt,value
2023-02-24T00:00:51.524Z,7.07
2023-02-24T00:03:24.142Z,5.77
2023-02-24T00:05:54.903Z,6.60
2023-02-24T00:08:25.816Z,6.10
2023-02-24T00:10:57.490Z,5.57
2023-02-24T00:13:32.710Z,5.67
2023-02-24T00:16:05.107Z,5.17
2023-02-24T00:18:38.556Z,5.50
2023-02-24T00:21:11.181Z,5.40
2023-02-24T00:23:42.682Z,5.17
2023-02-24T00:26:14.484Z,5.70
2023-02-24T00:28:46.074Z,4.97
2023-02-24T00:31:21.896Z,5.37
2023-02-24T00:33:57.732Z,4.90
2023-02-24T00:36:30.637Z,5.03
2023-02-24T00:39:09.291Z,4.80
2023-02-24T00:41:43.458Z,4.57
2023-02-24T00:44:16.724Z,5.80
2023-02-24T00:46:49.641Z,5.23
2023-02-24T00:49:24.528Z,5.10
2023-02-24T00:51:55.666Z,4.73
2023-02-24T00:54:28.392Z,4.80
2023-02-24T00:57:00.003Z,6.10
2023-02-24T00:59:31.018Z,5.60
2023-02-24T01:02:03.281Z,4.60
2023-02-24T01:04:37.729Z,5.17
2023-02-24T01:07:11.106Z,4.70
2023-02-24T01:09:44.298Z,4.83
2023-02-24T01:12:33.987Z,4.73
2023-02-24T01:15:05.755Z,4.37
2023-02-24T01:17:38.615Z,4.77
2023-02-24T01:20:20.334Z,4.90
2023-02-24T01:22:53.876Z,5.77
2023-02-24T01:25:25.262Z,5.33
2023-02-24T01:27:56.021Z,3.77
2023-02-24T01:30:26.810Z,4.90
2023-02-24T01:32:57.675Z,4.83
2023-02-24T01:35:31.718Z,5.83
2023-02-24T01:38:02.496Z,4.93
2023-02-24T01:40:33.253Z,4.60
2023-02-24T01:43:08.945Z,4.10
2023-02-24T01:45:40.206Z,5.53
2023-02-24T01:48:17.314Z,5.53
2023-02-24T01:50:55.066Z,5.50
2023-02-24T01:53:28.272Z,5.67
2023-02-24T01:55:59.286Z,5.97
2023-02-24T01:58:33.611Z,5.30
2023-02-24T02:01:08.838Z,5.97
2023-02-24T02:03:45.238Z,5.53
2023-02-24T02:06:20.401Z,5.83
2023-02-24T02:08:51.187Z,6.30
2023-02-24T02:11:23.424Z,6.17
2023-02-24T02:13:57.041Z,6.40
2023-02-24T02:16:56.233Z,6.53
2023-02-24T02:20:01.252Z,6.80
2023-02-24T02:23:06.816Z,6.53
2023-02-24T02:25:50.998Z,5.30
2023-02-24T02:29:00.942Z,5.97
2023-02-24T02:32:19.438Z,5.70
2023-02-24T02:34:59.794Z,7.50
2023-02-24T02:37:39.103Z,6.37
2023-02-24T02:40:19.979Z,6.27
2023-02-24T02:43:00.532Z,6.50
2023-02-24T02:45:36.999Z,6.50
2023-02-24T02:48:12.744Z,6.03
2023-02-24T02:50:50.688Z,6.07
2023-02-24T02:53:26.945Z,5.67
2023-02-24T02:56:02.505Z,5.93
2023-02-24T02:58:40.326Z,5.47
2023-02-24T03:01:16.440Z,5.30
2023-02-24T03:03:50.776Z,6.13
2023-02-24T03:06:30.248Z,6.37
2023-02-24T03:09:11.390Z,5.40
2023-02-24T03:11:43.581Z,5.20
2023-02-24T03:14:18.543Z,5.10
2023-02-24T03:16:52.083Z,5.80
2023-02-24T03:19:27.033Z,6.10
2023-02-24T03:22:06.772Z,5.43
2023-02-24T03:24:39.108Z,5.37
2023-02-24T03:27:15.924Z,5.40
2023-02-24T03:29:52.977Z,5.90
2023-02-24T03:32:33.535Z,6.50
2023-02-24T03:35:10.194Z,5.13
2023-02-24T03:37:43.559Z,4.43
2023-02-24T03:40:17.910Z,4.53
2023-02-24T03:42:54.805Z,4.37
2023-02-24T03:45:27.895Z,5.47
2023-02-24T03:48:00.156Z,5.80
2023-02-24T03:50:32.108Z,5.33
2023-02-24T03:53:22.428Z,4.33
2023-02-24T03:56:06.092Z,4.23
2023-02-24T03:58:47.213Z,4.73
2023-02-24T04:01:26.867Z,5.17
2023-02-24T04:04:06.895Z,4.80
2023-02-24T04:06:45.735Z,4.17
2023-02-24T04:09:26.038Z,4.20
2023-02-24T04:12:02.439Z,4.60
2023-02-24T04:14:36.928Z,3.57
2023-02-24T04:17:13.504Z,4.30
2023-02-24T04:19:48.021Z,4.67
2023-02-24T04:22:24.657Z,4.23
2023-02-24T04:25:02.524Z,4.10
2023-02-24T04:27:36.730Z,4.20
2023-02-24T04:30:10.698Z,3.93
2023-02-24T04:32:42.837Z,4.50
2023-02-24T04:35:18.383Z,4.47
2023-02-24T04:37:49.487Z,3.90
2023-02-24T04:40:24.768Z,4.23
2023-02-24T04:42:58.508Z,3.90
2023-02-24T04:45:31.809Z,3.90
2023-02-24T04:48:12.890Z,4.73
2023-02-24T04:50:45.357Z,3.57
2023-02-24T04:53:18.562Z,3.90
2023-02-24T04:55:51.872Z,4.03
2023-02-24T04:58:27.553Z,4.00
2023-02-24T05:00:58.939Z,3.97
2023-02-24T05:03:30.714Z,5.07
2023-02-24T05:06:02.975Z,3.80
2023-02-24T05:08:34.104Z,4.33
2023-02-24T05:11:08.501Z,4.03
2023-02-24T05:13:39.806Z,4.63
2023-02-24T05:16:13.421Z,3.60
2023-02-24T05:18:44.866Z,3.60
2023-02-24T05:21:30.230Z,3.77
2023-02-24T05:24:07.486Z,3.00
2023-02-24T05:26:42.631Z,2.97
2023-02-24T05:29:14.885Z,3.17
2023-02-24T05:31:45.881Z,3.70
2023-02-24T05:34:19.681Z,3.50
2023-02-24T05:36:53.342Z,4.13
2023-02-24T05:39:27.171Z,3.50
2023-02-24T05:42:06.306Z,3.63
2023-02-24T05:44:37.877Z,3.73
2023-02-24T05:47:10.895Z,3.67
2023-02-24T05:49:44.070Z,3.97
2023-02-24T05:52:14.827Z,4.13
2023-02-24T05:54:48.399Z,3.63
2023-02-24T05:57:24.872Z,4.50
2023-02-24T05:59:57.138Z,4.00
2023-02-24T06:02:37.303Z,4.00
2023-02-24T06:05:33.008Z,4.17
2023-02-24T06:08:07.168Z,4.17
2023-02-24T06:10:48.088Z,4.23
2023-02-24T06:13:37.381Z,4.10
2023-02-24T06:16:12.964Z,5.33
2023-02-24T06:18:44.302Z,4.43
2023-02-24T06:21:15.392Z,4.67
2023-02-24T06:23:46.517Z,4.73
2023-02-24T06:26:19.550Z,6.13
2023-02-24T06:28:55.623Z,4.87
2023-02-24T06:31:26.717Z,4.50
2023-02-24T06:34:00.700Z,4.40
2023-02-24T06:36:34.796Z,4.57
2023-02-24T06:39:08.118Z,4.30
2023-02-24T06:41:39.456Z,5.13
2023-02-24T06:44:13.827Z,4.90
2023-02-24T06:46:46.149Z,5.03
2023-02-24T06:49:16.840Z,5.07
2023-02-24T06:51:48.662Z,4.93
2023-02-24T06:54:19.684Z,4.90
2023-02-24T06:56:51.311Z,5.57
2023-02-24T06:59:28.609Z,3.80
2023-02-24T07:02:02.003Z,4.90
2023-02-24T07:04:43.603Z,4.03
2023-02-24T07:07:15.167Z,4.13
2023-02-24T07:09:47.252Z,3.93
2023-02-24T07:12:20.930Z,4.20
2023-02-24T07:14:54.390Z,3.27
2023-02-24T07:17:25.928Z,4.07
2023-02-24T07:19:57.435Z,3.73
2023-02-24T07:22:28.407Z,4.63
2023-02-24T07:25:01.562Z,3.53
2023-02-24T07:27:32.311Z,4.03
2023-02-24T07:30:10.391Z,3.87
2023-02-24T07:32:46.814Z,4.10
2023-02-24T07:35:17.845Z,3.87
2023-02-24T07:37:48.927Z,3.50
2023-02-24T07:40:22.579Z,4.40
2023-02-24T07:42:57.308Z,4.20
2023-02-24T07:45:30.862Z,3.97
2023-02-24T07:48:04.579Z,3.53
2023-02-24T07:50:35.457Z,3.50
2023-02-24T07:53:07.740Z,4.07
2023-02-24T07:55:40.185Z,3.70
2023-02-24T07:58:11.108Z,3.70
2023-02-24T08:00:59.533Z,4.60
2023-02-24T08:03:31.134Z,4.47
2023-02-24T08:06:15.489Z,4.27
2023-02-24T08:09:16.379Z,4.20
2023-02-24T08:11:52.529Z,4.47
2023-02-24T08:14:26.874Z,4.57
2023-02-24T08:17:00.248Z,4.60
2023-02-24T08:19:33.263Z,4.33
2023-02-24T08:22:19.354Z,4.03
2023-02-24T08:24:55.501Z,4.20
2023-02-24T08:27:30.392Z,3.50
2023-02-24T08:30:04.341Z,3.33
2023-02-24T08:32:43.766Z,4.10
2023-02-24T08:35:17.364Z,3.30
2023-02-24T08:37:51.795Z,3.23
2023-02-24T08:40:50.261Z,3.30
2023-02-24T08:43:33.230Z,3.30
2023-02-24T08:46:13.138Z,3.13
2023-02-24T08:48:48.929Z,3.27
2023-02-24T08:51:23.559Z,3.87
2023-02-24T08:53:56.534Z,3.20
2023-02-24T08:56:29.537Z,3.23
2023-02-24T08:59:05.955Z,3.07
2023-02-24T09:01:40.362Z,4.03
2023-02-24T09:04:19.685Z,2.93
2023-02-24T09:07:10.798Z,2.63
2023-02-24T09:09:43.051Z,3.03
2023-02-24T09:15:41.641Z,2.30
2023-02-24T09:18:14.419Z,2.77
2023-02-24T09:21:19.186Z,2.70
2023-02-24T09:23:52.785Z,2.77
2023-02-24T09:26:23.546Z,3.30
2023-02-24T09:28:58.272Z,3.20
2023-02-24T09:31:40.864Z,3.70
2023-02-24T09:34:20.797Z,5.20
2023-02-24T09:37:03.104Z,4.50
2023-02-24T09:39:57.371Z,4.47
2023-02-24T09:42:46.418Z,4.60
2023-02-24T09:45:33.473Z,5.00
2023-02-24T09:48:12.958Z,4.57
2023-02-24T09:51:04.644Z,4.30
2023-02-24T09:53:49.576Z,4.40
2023-02-24T09:56:24.704Z,4.53
2023-02-24T09:59:10.421Z,4.83
2023-02-24T10:01:50.330Z,5.13
2023-02-24T10:04:39.982Z,3.43
2023-02-24T10:07:17.024Z,4.20
2023-02-24T10:09:54.968Z,3.70
2023-02-24T10:12:39.917Z,4.50
2023-02-24T10:15:42.969Z,3.70
2023-02-24T10:18:29.584Z,3.97
2023-02-24T10:21:08.617Z,3.40
2023-02-24T10:23:56.680Z,3.87
2023-02-24T10:26:57.946Z,4.00
2023-02-24T10:29:43.330Z,3.67
2023-02-24T10:32:24.504Z,4.37
2023-02-24T10:34:56.067Z,3.73
2023-02-24T10:37:31.252Z,3.70
2023-02-24T10:40:09.775Z,3.50
2023-02-24T10:43:03.224Z,3.87
2023-02-24T10:45:35.179Z,3.90
2023-02-24T10:48:12.009Z,3.63
2023-02-24T10:50:56.252Z,3.40
2023-02-24T10:53:37.217Z,3.70
2023-02-24T10:56:23.881Z,3.73
2023-02-24T10:59:19.475Z,4.60
2023-02-24T11:02:06.781Z,4.50
2023-02-24T11:04:52.851Z,3.90
2023-02-24T11:07:44.178Z,3.70
2023-02-24T11:10:26.014Z,4.20
2023-02-24T11:13:11.501Z,4.27
2023-02-24T11:16:00.853Z,3.30
2023-02-24T11:18:33.533Z,3.37
2023-02-24T11:21:06.607Z,3.97
2023-02-24T11:23:43.085Z,4.20
2023-02-24T11:26:19.430Z,4.73
2023-02-24T11:29:05.901Z,4.53
2023-02-24T11:32:11.643Z,4.80
2023-02-24T11:34:50.197Z,4.60
2023-02-24T11:37:34.533Z,4.97
2023-02-24T11:40:18.875Z,3.97
2023-02-24T11:42:56.231Z,4.63
2023-02-24T11:45:36.331Z,3.93
2023-02-24T11:48:15.989Z,4.60
2023-02-24T11:50:50.182Z,4.40
2023-02-24T11:53:30.111Z,4.13
2023-02-24T11:56:05.513Z,4.40
2023-02-24T11:58:44.656Z,4.43
2023-02-24T12:01:20.166Z,5.00
2023-02-24T12:04:02.961Z,5.87
2023-02-24T12:06:43.354Z,5.73
2023-02-24T12:09:19.980Z,6.80
2023-02-24T12:12:02.162Z,6.33
2023-02-24T12:14:38.997Z,5.90
2023-02-24T12:17:19.939Z,6.03
2023-02-24T12:20:05.871Z,6.60
2023-02-24T12:22:46.086Z,7.27
2023-02-24T12:25:19.026Z,7.37
2023-02-24T12:28:02.163Z,6.67
2023-02-24T12:30:51.290Z,8.03
2023-02-24T12:33:38.506Z,8.27
2023-02-24T12:36:20.959Z,7.70
2023-02-24T12:39:09.946Z,8.07
2023-02-24T12:41:58.117Z,8.30
2023-02-24T12:44:41.584Z,9.00
2023-02-24T12:47:16.131Z,8.47
2023-02-24T12:50:18.172Z,9.23
2023-02-24T12:52:59.395Z,8.90
2023-02-24T12:55:37.770Z,8.20
2023-02-24T12:58:15.309Z,7.77
2023-02-24T13:00:57.177Z,8.10
2023-02-24T13:03:42.304Z,8.50
2023-02-24T13:06:22.176Z,8.33
2023-02-24T13:09:05.425Z,8.27
2023-02-24T13:11:47.201Z,8.17
2023-02-24T13:14:27.370Z,8.23
2023-02-24T13:17:20.050Z,7.73
2023-02-24T13:19:52.355Z,8.17
2023-02-24T13:22:29.672Z,7.67
2023-02-24T13:25:15.146Z,7.40
2023-02-24T13:27:46.580Z,7.60
2023-02-24T13:30:38.948Z,7.83
2023-02-24T13:33:25.076Z,7.83
2023-02-24T13:36:12.637Z,7.57
2023-02-24T13:38:45.734Z,6.77
2023-02-24T13:41:43.377Z,7.33
2023-02-24T13:44:29.813Z,6.47
2023-02-24T13:47:34.280Z,7.43
2023-02-24T13:50:21.501Z,7.87
2023-02-24T13:53:09.752Z,8.20
2023-02-24T13:55:52.839Z,8.83
2023-02-24T13:58:53.003Z,7.80
2023-02-24T14:01:29.831Z,9.20
2023-02-24T14:04:17.458Z,9.30
2023-02-24T14:06:52.509Z,9.60
2023-02-24T14:09:30.290Z,9.63
2023-02-24T14:12:03.608Z,9.27
2023-02-24T14:14:37.237Z,10.23
2023-02-24T14:17:09.645Z,9.90
2023-02-24T14:19:43.310Z,10.63
2023-02-24T14:22:22.700Z,11.57
2023-02-24T14:25:04.996Z,12.27
2023-02-24T14:27:38.768Z,12.00
2023-02-24T14:30:26.385Z,13.50
2023-02-24T14:33:00.535Z,13.80
2023-02-24T14:35:36.508Z,13.67
2023-02-24T14:38:08.419Z,14.87
2023-02-24T14:40:49.965Z,14.47
2023-02-24T14:43:20.955Z,15.60
2023-02-24T14:45:57.652Z,15.30
2023-02-24T14:48:30.186Z,14.97
2023-02-24T14:51:09.916Z,16.17
2023-02-24T14:53:51.622Z,14.10
2023-02-24T14:56:28.208Z,14.17
2023-02-24T14:59:03.973Z,14.70
2023-02-24T15:01:43.110Z,14.07
2023-02-24T15:04:17.588Z,16.20
2023-02-24T15:06:49.166Z,15.30
2023-02-24T15:09:23.795Z,15.13
2023-02-24T15:11:56.218Z,13.83
2023-02-24T15:14:29.914Z,14.77
2023-02-24T15:17:05.917Z,13.93
2023-02-24T15:19:44.070Z,14.87
2023-02-24T15:22:25.272Z,15.70
2023-02-24T15:24:58.474Z,16.30
2023-02-24T15:27:30.996Z,16.27
2023-02-24T15:30:05.807Z,17.17
2023-02-24T15:32:41.886Z,19.77
2023-02-24T15:35:27.123Z,18.80
2023-02-24T15:37:58.174Z,21.20
2023-02-24T15:40:29.537Z,21.57
2023-02-24T15:43:02.279Z,22.67
2023-02-24T15:45:36.250Z,23.50
2023-02-24T15:48:23.430Z,23.60
2023-02-24T15:50:54.226Z,24.57
2023-02-24T15:53:25.146Z,23.33
2023-02-24T15:55:56.023Z,24.70
2023-02-24T15:58:26.902Z,24.50
2023-02-24T16:00:57.767Z,23.40
2023-02-24T16:03:35.245Z,24.13
2023-02-24T16:06:06.205Z,25.80
2023-02-24T16:08:44.983Z,25.57
2023-02-24T16:11:17.478Z,26.23
2023-02-24T16:13:53.918Z,25.20
2023-02-24T16:16:25.875Z,26.47
2023-02-24T16:18:59.489Z,31.97
2023-02-24T16:21:31.011Z,39.93
2023-02-24T16:24:01.975Z,25.93
2023-02-24T16:26:45.871Z,24.67
2023-02-24T16:29:18.316Z,24.33
2023-02-24T16:31:51.911Z,24.90
2023-02-24T16:34:25.404Z,22.23
2023-02-24T16:36:56.280Z,18.80
2023-02-24T16:42:21.902Z,20.67
2023-02-24T16:44:53.415Z,18.90
2023-02-24T16:47:27.068Z,18.07
2023-02-24T16:50:00.869Z,18.90
2023-02-24T16:52:31.726Z,19.70
2023-02-24T16:55:02.473Z,19.40
2023-02-24T16:57:33.397Z,18.43
2023-02-24T17:00:05.262Z,19.23
2023-02-24T17:02:37.363Z,19.47
2023-02-24T17:05:15.846Z,16.00
2023-02-24T17:07:46.720Z,14.80
2023-02-24T17:10:18.369Z,12.60
2023-02-24T17:12:49.547Z,11.80
2023-02-24T17:15:23.452Z,8.33
2023-02-24T17:17:54.407Z,9.40
2023-02-24T17:20:27.754Z,8.90
2023-02-24T17:22:58.555Z,7.47
2023-02-24T17:25:32.174Z,7.30
2023-02-24T17:28:05.413Z,7.90
2023-02-24T17:30:39.535Z,8.80
2023-02-24T17:33:11.201Z,9.27
2023-02-24T17:35:48.145Z,9.20
2023-02-24T17:38:20.597Z,10.77
2023-02-24T17:40:51.379Z,14.47
2023-02-24T17:43:22.225Z,12.37
2023-02-24T17:45:53.746Z,11.83
2023-02-24T17:48:24.882Z,8.60
2023-02-24T17:50:58.346Z,8.37
2023-02-24T17:53:31.311Z,7.73
2023-02-24T17:56:06.304Z,5.90
2023-02-24T17:58:37.120Z,5.70
2023-02-24T18:01:09.706Z,6.10
2023-02-24T18:03:40.530Z,5.47
2023-02-24T18:06:15.519Z,6.13
2023-02-24T18:08:46.546Z,5.10
2023-02-24T18:11:19.438Z,5.60
2023-02-24T18:13:52.658Z,4.93
2023-02-24T18:16:23.817Z,4.33
2023-02-24T18:18:55.314Z,3.27
2023-02-24T18:21:29.037Z,2.80
2023-02-24T18:23:59.909Z,3.33
2023-02-24T18:26:30.911Z,2.60
2023-02-24T18:29:02.845Z,2.37
2023-02-24T18:31:34.019Z,2.13
2023-02-24T18:34:05.045Z,2.07
2023-02-24T18:36:38.797Z,2.30
2023-02-24T18:39:16.290Z,2.13
2023-02-24T18:41:50.176Z,2.27
2023-02-24T18:44:21.019Z,2.70
2023-02-24T18:46:53.830Z,1.50
2023-02-24T18:49:24.598Z,1.93
2023-02-24T18:51:59.743Z,2.07
2023-02-24T18:54:32.958Z,1.63
2023-02-24T18:57:03.785Z,2.00
2023-02-24T18:59:34.510Z,3.10
2023-02-24T19:02:07.662Z,3.03
2023-02-24T19:04:38.501Z,2.63
2023-02-24T19:07:12.665Z,2.50
2023-02-24T19:09:43.917Z,3.30
2023-02-24T19:12:17.560Z,2.20
2023-02-24T19:14:48.642Z,3.30
2023-02-24T19:17:19.329Z,2.90
2023-02-24T19:19:50.619Z,2.20
2023-02-24T19:22:24.105Z,2.30
2023-02-24T19:24:55.253Z,2.10
2023-02-24T19:27:28.503Z,2.67
2023-02-24T19:29:59.254Z,2.30
2023-02-24T19:32:30.270Z,2.50
2023-02-24T19:35:01.149Z,2.50
2023-02-24T19:37:35.554Z,2.70
2023-02-24T19:40:06.653Z,3.50
2023-02-24T19:42:37.718Z,3.43
2023-02-24T19:45:10.282Z,3.40
2023-02-24T19:47:42.837Z,3.03
2023-02-24T19:50:17.411Z,3.00
2023-02-24T19:52:51.684Z,3.70
2023-02-24T19:55:22.512Z,2.47
2023-02-24T19:57:56.257Z,3.00
2023-02-24T20:00:30.370Z,2.90
2023-02-24T20:03:01.340Z,2.87
2023-02-24T20:05:32.012Z,2.87
2023-02-24T20:08:05.285Z,2.87
2023-02-24T20:10:35.982Z,3.10
2023-02-24T20:13:09.534Z,2.53
2023-02-24T20:15:40.398Z,2.70
2023-02-24T20:18:11.159Z,2.80
2023-02-24T20:20:41.990Z,2.83
2023-02-24T20:23:15.440Z,2.97
2023-02-24T20:25:53.754Z,3.57
2023-02-24T20:28:28.604Z,3.23
2023-02-24T20:31:04.606Z,2.90
2023-02-24T20:33:35.682Z,3.00
2023-02-24T20:36:10.490Z,3.87
2023-02-24T20:38:44.178Z,3.57
2023-02-24T20:41:15.114Z,3.00
2023-02-24T20:43:46.462Z,3.10
2023-02-24T20:46:24.267Z,3.00
2023-02-24T20:48:58.011Z,2.60
2023-02-24T20:51:30.043Z,2.67
2023-02-24T20:54:03.993Z,2.90
2023-02-24T20:56:37.682Z,2.77
2023-02-24T20:59:11.257Z,3.03
2023-02-24T21:01:47.453Z,2.77
2023-02-24T21:04:21.314Z,3.33
2023-02-24T21:06:53.059Z,3.40
2023-02-24T21:09:26.675Z,2.90
2023-02-24T21:11:57.402Z,3.13
2023-02-24T21:14:28.178Z,5.30
2023-02-24T21:16:59.267Z,3.43
2023-02-24T21:19:30.269Z,3.23
2023-02-24T21:22:01.614Z,3.53
2023-02-24T21:24:38.465Z,3.70
2023-02-24T21:27:10.587Z,4.40
2023-02-24T21:29:41.291Z,4.67
2023-02-24T21:32:12.543Z,3.03
2023-02-24T21:34:45.896Z,3.67
2023-02-24T21:37:18.669Z,4.27
2023-02-24T21:39:55.280Z,3.80
2023-02-24T21:42:30.340Z,3.40
2023-02-24T21:45:02.374Z,3.40
2023-02-24T21:47:33.674Z,4.17
2023-02-24T21:50:04.596Z,3.40
2023-02-24T21:52:38.432Z,3.10
2023-02-24T21:55:14.088Z,3.70
2023-02-24T21:57:46.318Z,3.73
2023-02-24T22:00:24.184Z,3.73
2023-02-24T22:02:59.694Z,3.77
2023-02-24T22:05:33.931Z,3.60
2023-02-24T22:08:04.821Z,3.70
2023-02-24T22:10:38.178Z,4.30
2023-02-24T22:13:08.905Z,3.90
2023-02-24T22:15:41.772Z,3.60
2023-02-24T22:18:12.579Z,3.50
2023-02-24T22:20:44.062Z,3.50
2023-02-24T22:23:14.886Z,3.17
2023-02-24T22:25:49.333Z,3.60
2023-02-24T22:28:20.269Z,3.10
2023-02-24T22:30:57.924Z,3.70
2023-02-24T22:33:28.989Z,3.83
2023-02-24T22:36:05.001Z,3.70
2023-02-24T22:38:38.464Z,3.73
2023-02-24T22:41:16.592Z,3.33
2023-02-24T22:43:50.628Z,3.80
2023-02-24T22:46:25.112Z,3.57
2023-02-24T22:49:01.110Z,3.83
2023-02-24T22:51:36.811Z,3.97
2023-02-24T22:54:08.330Z,4.33
2023-02-24T22:56:41.700Z,4.13
2023-02-24T22:59:13.668Z,3.70
2023-02-24T23:01:52.083Z,2.80
2023-02-24T23:04:22.781Z,3.70
2023-02-24T23:06:55.448Z,3.87
2023-02-24T23:09:29.110Z,4.00
2023-02-24T23:12:02.479Z,4.80
2023-02-24T23:14:33.239Z,4.90
2023-02-24T23:17:04.014Z,4.10
2023-02-24T23:19:37.401Z,3.60
2023-02-24T23:22:10.447Z,3.47
2023-02-24T23:24:41.228Z,3.67
2023-02-24T23:27:14.579Z,4.10
2023-02-24T23:29:46.057Z,3.50
2023-02-24T23:32:17.350Z,4.50
2023-02-24T23:34:48.755Z,3.60
2023-02-24T23:37:20.424Z,3.50
2023-02-24T23:39:51.133Z,3.00
2023-02-24T23:42:39.308Z,3.20
2023-02-24T23:45:17.375Z,3.07
2023-02-24T23:47:48.215Z,3.27
2023-02-24T23:50:20.327Z,3.17
2023-02-24T23:52:56.601Z,2.80
2023-02-24T23:55:30.590Z,2.93
2023-02-24T23:58:04.061Z,2.50
